Time;durP1;ratioP1;P1;durP2;ratioP2;P2;SDS_P1;SDS_P2;PMS_P1;PMS_P2;Temp;Humidity;BMP_temperature;BMP_pressure;BME280_temperature;BME280_humidity;BME280_pressure;Samples;Min_cycle;Max_cycle;Signal;HPM_P1;HPM_P2
2022/11/13 00:01:19;;;;;;;34.57;18.33;;;4.00;99.90;;;;;;5048964;28;20400;-82
2022/11/13 00:03:45;;;;;;;131.37;20.10;;;4.00;99.90;;;;;;5048438;28;20032;-82
2022/11/13 00:06:12;;;;;;;71.40;18.37;;;3.90;99.90;;;;;;5048648;28;20036;-82
2022/11/13 00:08:38;;;;;;;132.87;20.27;;;3.90;99.90;;;;;;5048329;28;20041;-82
2022/11/13 00:11:10;;;;;;;143.60;20.37;;;3.90;99.90;;;;;;5047051;28;20028;-82
2022/11/13 00:13:36;;;;;;;163.10;22.00;;;3.90;99.90;;;;;;5068699;28;20071;-81
2022/11/13 00:16:04;;;;;;;100.43;18.47;;;3.90;99.90;;;;;;5028725;28;20030;-82
2022/11/13 00:18:32;;;;;;;137.73;19.60;;;3.90;99.90;;;;;;5028617;28;20375;-82
2022/11/13 00:21:05;;;;;;;128.67;20.10;;;3.90;99.90;;;;;;5054591;28;20016;-82
2022/11/13 00:23:35;;;;;;;141.50;20.33;;;3.90;99.90;;;;;;5068304;28;20485;-82
2022/11/13 00:26:07;;;;;;;73.23;18.57;;;3.80;99.90;;;;;;5090157;28;20032;-82
2022/11/13 00:28:33;;;;;;;170.67;20.77;;;3.80;99.90;;;;;;5090848;28;20024;-82
2022/11/13 00:31:00;;;;;;;115.43;20.10;;;3.70;99.90;;;;;;5090957;28;20024;-82
2022/11/13 00:33:26;;;;;;;98.07;19.70;;;3.70;99.90;;;;;;5091141;28;20104;-82
2022/11/13 00:35:51;;;;;;;101.03;18.30;;;3.70;99.90;;;;;;5090822;28;20451;-82
2022/11/13 00:38:17;;;;;;;93.70;22.53;;;3.60;99.90;;;;;;5090896;28;20035;-82
2022/11/13 00:40:42;;;;;;;92.60;22.20;;;3.60;99.90;;;;;;5072793;28;20031;-82
2022/11/13 00:43:08;;;;;;;104.63;21.77;;;3.60;99.90;;;;;;5090941;28;20107;-81
2022/11/13 00:45:33;;;;;;;106.00;22.73;;;3.60;99.90;;;;;;5090990;28;20040;-82
2022/11/13 00:47:59;;;;;;;135.17;22.03;;;3.60;99.90;;;;;;5078322;28;20055;-81
2022/11/13 00:50:25;;;;;;;178.53;23.33;;;3.60;99.90;;;;;;5090857;28;20028;-82
2022/11/13 00:52:50;;;;;;;79.53;23.00;;;3.70;99.90;;;;;;5090475;28;20430;-82
2022/11/13 00:55:16;;;;;;;154.40;25.60;;;3.70;99.90;;;;;;5090885;28;20074;-81
2022/11/13 00:57:41;;;;;;;223.83;24.03;;;3.70;99.90;;;;;;5091069;28;20036;-81
2022/11/13 01:00:08;;;;;;;203.80;22.83;;;3.70;99.90;;;;;;5090873;28;20035;-81
2022/11/13 01:02:34;;;;;;;205.27;22.87;;;3.70;99.90;;;;;;5091046;28;20035;-82
2022/11/13 01:05:00;;;;;;;214.43;21.47;;;3.70;99.90;;;;;;5090725;28;20039;-79
2022/11/13 01:07:26;;;;;;;209.03;19.50;;;3.70;99.90;;;;;;5089495;28;20031;-79
2022/11/13 01:09:51;;;;;;;147.53;20.93;;;3.70;99.90;;;;;;5090736;28;20024;-79
2022/11/13 01:12:17;;;;;;;153.17;20.93;;;3.60;99.90;;;;;;5093340;28;20021;-79
2022/11/13 01:14:42;;;;;;;148.50;20.43;;;3.60;99.90;;;;;;5093769;28;20460;-79
2022/11/13 01:17:08;;;;;;;266.07;23.67;;;3.60;99.90;;;;;;5093862;28;20039;-79
2022/11/13 01:19:34;;;;;;;89.70;19.73;;;3.60;99.90;;;;;;5093486;28;20096;-79
2022/11/13 01:21:59;;;;;;;91.40;18.53;;;3.50;99.90;;;;;;5093518;28;20028;-79
2022/11/13 01:24:25;;;;;;;125.63;19.30;;;3.50;99.90;;;;;;5093497;28;20028;-79
2022/11/13 01:26:50;;;;;;;172.90;20.63;;;3.50;99.90;;;;;;5093395;28;20461;-79
2022/11/13 01:29:16;;;;;;;151.93;20.27;;;3.50;99.90;;;;;;5093368;28;20162;-79
2022/11/13 01:31:41;;;;;;;124.70;18.63;;;3.50;99.90;;;;;;5093373;28;20024;-81
2022/11/13 01:34:07;;;;;;;108.37;18.80;;;3.50;99.90;;;;;;5092785;28;20035;-81
2022/11/13 01:36:33;;;;;;;80.20;18.50;;;3.50;99.90;;;;;;5093122;28;20403;-81
2022/11/13 01:38:58;;;;;;;221.37;19.53;;;3.60;99.90;;;;;;5092455;28;20728;-81
2022/11/13 01:41:30;;;;;;;172.90;19.70;;;3.60;99.90;;;;;;5092494;28;20077;-81
2022/11/13 01:43:56;;;;;;;232.13;21.83;;;3.50;99.90;;;;;;5074164;28;20035;-81
2022/11/13 01:46:43;;;;;;;127.03;20.27;;;3.50;99.90;;;;;;5092731;28;20110;-81
2022/11/13 01:49:08;;;;;;;185.60;20.60;;;3.50;99.90;;;;;;5092578;28;20123;-81
2022/11/13 01:51:47;;;;;;;167.90;19.67;;;3.50;99.90;;;;;;5092722;28;20113;-81
2022/11/13 01:54:19;;;;;;;258.60;22.53;;;3.50;99.90;;;;;;5092232;28;20050;-81
2022/11/13 01:56:45;;;;;;;112.57;20.27;;;3.60;99.90;;;;;;5092397;28;20032;-81
2022/11/13 01:59:24;;;;;;;144.33;20.20;;;3.60;99.90;;;;;;5074144;28;20127;-81
2022/11/13 02:01:50;;;;;;;172.63;22.23;;;3.60;99.90;;;;;;5092349;28;20024;-81
2022/11/13 02:04:16;;;;;;;140.83;22.77;;;3.60;99.90;;;;;;5092389;28;20118;-81
2022/11/13 02:06:47;;;;;;;119.00;21.50;;;3.60;99.90;;;;;;5092184;28;20024;-81
2022/11/13 02:09:16;;;;;;;134.47;20.90;;;3.60;99.90;;;;;;5074399;28;20036;-81
2022/11/13 02:11:42;;;;;;;274.40;24.60;;;3.60;99.90;;;;;;5092202;28;20032;-81
2022/11/13 02:14:08;;;;;;;182.77;22.17;;;3.60;99.90;;;;;;5092115;28;20020;-81
2022/11/13 02:16:36;;;;;;;153.07;20.83;;;3.60;99.90;;;;;;5092071;28;20089;-81
2022/11/13 02:19:10;;;;;;;213.57;22.07;;;3.60;99.90;;;;;;5092258;28;20546;-81
2022/11/13 02:22:26;;;;;;;190.07;21.50;;;3.60;99.90;;;;;;5091056;28;20397;-81
2022/11/13 02:24:53;;;;;;;161.10;21.67;;;3.60;99.90;;;;;;5065749;28;20093;-81
2022/11/13 02:27:35;;;;;;;156.60;22.03;;;3.60;99.90;;;;;;5091948;28;20046;-81
2022/11/13 02:30:32;;;;;;;123.57;20.93;;;3.60;99.90;;;;;;5092071;28;20448;-81
2022/11/13 02:32:58;;;;;;;206.70;21.47;;;3.60;99.90;;;;;;5079147;28;20028;-81
2022/11/13 02:35:36;;;;;;;278.37;23.37;;;3.60;99.90;;;;;;5073482;28;20028;-81
2022/11/13 02:38:04;;;;;;;105.93;20.47;;;3.50;99.90;;;;;;5091202;28;20115;-81
2022/11/13 02:40:31;;;;;;;133.23;18.90;;;3.50;99.90;;;;;;5091710;28;20492;-80
2022/11/13 02:42:56;;;;;;;168.90;19.23;;;3.60;99.90;;;;;;5091588;28;20496;-81
2022/11/13 02:45:22;;;;;;;132.90;19.43;;;3.60;99.90;;;;;;5073459;28;20028;-81
2022/11/13 02:47:48;;;;;;;106.70;18.17;;;3.60;99.90;;;;;;5091284;28;20044;-81
2022/11/13 02:50:15;;;;;;;106.63;18.90;;;3.60;99.90;;;;;;5091281;28;20476;-81
2022/11/13 02:52:40;;;;;;;141.03;17.83;;;3.50;99.90;;;;;;5091269;28;20325;-81
2022/11/13 02:55:06;;;;;;;109.90;17.47;;;3.50;99.90;;;;;;5073048;28;20031;-81
2022/11/13 02:57:32;;;;;;;162.83;18.17;;;3.60;99.90;;;;;;5090698;28;20039;-81
2022/11/13 02:59:57;;;;;;;82.30;16.73;;;3.50;99.90;;;;;;5073210;28;20028;-81
2022/11/13 03:02:23;;;;;;;139.60;18.67;;;3.50;99.90;;;;;;5090988;28;20032;-81
2022/11/13 03:04:51;;;;;;;115.10;19.33;;;3.50;99.90;;;;;;5090921;28;20502;-81
2022/11/13 03:07:16;;;;;;;278.33;23.67;;;3.50;99.90;;;;;;5090770;28;20032;-81
2022/11/13 03:09:42;;;;;;;104.97;18.00;;;3.50;99.90;;;;;;5091182;28;20081;-81
2022/11/13 03:12:09;;;;;;;96.07;17.20;;;3.50;99.90;;;;;;5091144;28;20440;-80
2022/11/13 03:14:35;;;;;;;203.87;19.47;;;3.50;99.90;;;;;;5091018;28;20028;-80
2022/11/13 03:17:00;;;;;;;136.47;19.13;;;3.50;99.90;;;;;;5091056;28;20046;-81
2022/11/13 03:19:27;;;;;;;114.27;18.30;;;3.50;99.90;;;;;;5091041;28;20777;-81
2022/11/13 03:21:52;;;;;;;150.20;20.17;;;3.50;99.90;;;;;;5090878;28;20035;-81
2022/11/13 03:24:18;;;;;;;95.13;17.90;;;3.50;99.90;;;;;;5090928;28;20028;-81
2022/11/13 03:26:43;;;;;;;52.40;18.13;;;3.40;99.90;;;;;;5090674;28;20464;-81
2022/11/13 03:29:09;;;;;;;99.23;18.07;;;3.40;99.90;;;;;;5090615;28;20020;-81
2022/11/13 03:31:34;;;;;;;82.63;18.80;;;3.40;99.90;;;;;;5090758;28;20350;-81
2022/11/13 03:34:00;;;;;;;101.03;18.90;;;3.40;99.90;;;;;;5090207;28;20122;-81
2022/11/13 03:36:26;;;;;;;66.83;18.67;;;3.40;99.90;;;;;;5090817;28;20101;-81
2022/11/13 03:38:51;;;;;;;100.77;17.60;;;3.40;99.90;;;;;;5090292;28;20035;-81
2022/11/13 03:41:17;;;;;;;87.80;17.67;;;3.40;99.90;;;;;;5090465;28;20036;-81
2022/11/13 03:43:43;;;;;;;69.83;16.97;;;3.40;99.90;;;;;;5090714;28;20161;-81
2022/11/13 03:46:08;;;;;;;49.77;16.90;;;3.30;99.90;;;;;;5090627;28;20072;-81
2022/11/13 03:48:34;;;;;;;66.23;16.07;;;3.40;99.90;;;;;;5090316;28;20052;-81
2022/11/13 03:51:00;;;;;;;76.00;15.43;;;3.40;99.90;;;;;;5090368;28;20073;-81
2022/11/13 03:53:26;;;;;;;71.17;15.17;;;3.30;99.90;;;;;;5090368;28;20035;-81
2022/11/13 03:55:51;;;;;;;68.40;15.10;;;3.30;99.90;;;;;;5090204;28;20403;-81
2022/11/13 03:58:17;;;;;;;62.60;15.67;;;3.30;99.90;;;;;;5090281;28;20039;-81
2022/11/13 04:00:45;;;;;;;65.30;16.27;;;3.30;99.90;;;;;;5090378;28;20032;-81
2022/11/13 04:03:10;;;;;;;58.90;17.40;;;3.30;99.90;;;;;;5090262;28;20031;-80
2022/11/13 04:05:36;;;;;;;102.40;17.47;;;3.30;99.90;;;;;;5090141;28;20384;-81
2022/11/13 04:08:02;;;;;;;60.33;15.50;;;3.20;99.90;;;;;;5090198;28;20036;-81
2022/11/13 04:10:28;;;;;;;95.80;16.00;;;3.20;99.90;;;;;;5090075;28;20085;-80
2022/11/13 04:12:54;;;;;;;104.73;16.90;;;3.20;99.90;;;;;;5089933;28;20047;-81
2022/11/13 04:15:20;;;;;;;71.17;16.13;;;3.20;99.90;;;;;;5090485;28;20465;-81
2022/11/13 04:17:45;;;;;;;84.53;16.00;;;3.20;99.90;;;;;;5089862;28;20330;-81
2022/11/13 04:20:11;;;;;;;83.83;16.03;;;3.20;99.90;;;;;;5071977;28;20024;-81
2022/11/13 04:22:37;;;;;;;82.57;15.60;;;3.10;99.90;;;;;;5090001;28;20388;-81
2022/11/13 04:25:03;;;;;;;89.67;15.43;;;3.20;99.90;;;;;;5071863;28;20051;-81
2022/11/13 04:27:29;;;;;;;96.97;14.83;;;3.10;99.90;;;;;;5089859;28;20020;-81
2022/11/13 04:29:54;;;;;;;69.30;15.10;;;3.10;99.90;;;;;;5089880;28;20036;-81
2022/11/13 04:32:20;;;;;;;63.10;14.40;;;3.10;99.90;;;;;;5089851;28;20099;-81
2022/11/13 04:34:45;;;;;;;94.47;14.50;;;3.00;99.90;;;;;;5090179;28;20035;-81
2022/11/13 04:37:11;;;;;;;94.27;13.43;;;3.00;99.90;;;;;;5089796;28;20035;-81
2022/11/13 04:39:36;;;;;;;118.27;14.03;;;3.00;99.90;;;;;;5089984;28;20028;-81
2022/11/13 04:44:46;;;;;;;92.13;14.73;;;2.90;99.90;;;;;;5090482;28;20440;-81
2022/11/13 04:47:12;;;;;;;90.00;15.93;;;2.90;99.90;;;;;;5093445;28;20040;-81
2022/11/13 04:49:37;;;;;;;68.13;15.03;;;2.90;99.90;;;;;;5093836;28;20078;-81
2022/11/13 04:52:03;;;;;;;82.57;14.23;;;2.90;99.90;;;;;;5093672;28;20077;-81
2022/11/13 04:54:29;;;;;;;133.00;19.10;;;2.80;99.90;;;;;;5093530;28;20477;-81
2022/11/13 04:56:55;;;;;;;75.37;18.27;;;2.80;99.90;;;;;;5093583;28;20028;-81
2022/11/13 04:59:20;;;;;;;86.70;14.57;;;2.80;99.90;;;;;;5075236;28;20024;-80
2022/11/13 05:01:46;;;;;;;121.03;14.23;;;2.80;99.90;;;;;;5093667;28;20032;-81
2022/11/13 05:04:13;;;;;;;84.13;13.70;;;2.80;99.90;;;;;;5093718;28;20028;-81
2022/11/13 05:06:38;;;;;;;96.30;16.83;;;2.70;99.90;;;;;;5093445;28;20016;-80
2022/11/13 05:09:04;;;;;;;97.23;16.30;;;2.70;99.90;;;;;;5093327;28;20515;-80
2022/11/13 05:11:29;;;;;;;119.77;28.30;;;2.70;99.90;;;;;;5093169;28;20024;-80
2022/11/13 05:13:55;;;;;;;157.67;35.10;;;2.70;99.90;;;;;;5093083;28;20519;-80
2022/11/13 05:16:21;;;;;;;122.93;26.07;;;2.60;99.90;;;;;;5093458;28;20040;-80
2022/11/13 05:18:47;;;;;;;98.27;21.60;;;2.60;99.90;;;;;;5093557;28;20135;-80
2022/11/13 05:21:15;;;;;;;56.87;14.53;;;2.60;99.90;;;;;;5092791;28;20032;-81
2022/11/13 05:23:40;;;;;;;61.30;11.60;;;2.60;99.90;;;;;;5093408;28;20111;-81
2022/11/13 05:26:12;;;;;;;91.23;18.13;;;2.60;99.90;;;;;;5092923;28;20032;-80
2022/11/13 05:28:38;;;;;;;79.23;12.53;;;2.60;99.90;;;;;;5092783;28;20028;-80
2022/11/13 05:31:12;;;;;;;77.00;11.57;;;2.60;99.90;;;;;;5093127;28;20035;-81
2022/11/13 05:33:39;;;;;;;78.40;12.23;;;2.60;99.90;;;;;;5074510;28;20468;-81
2022/11/13 05:36:13;;;;;;;59.27;12.43;;;2.60;99.90;;;;;;5092900;28;20031;-80
2022/11/13 05:38:40;;;;;;;120.80;19.47;;;2.60;99.90;;;;;;5092747;28;20063;-81
2022/11/13 05:41:11;;;;;;;56.93;14.27;;;2.50;99.90;;;;;;5092737;28;20028;-81
2022/11/13 05:43:37;;;;;;;49.00;13.70;;;2.50;99.90;;;;;;5092556;28;20419;-81
2022/11/13 05:46:12;;;;;;;57.93;14.20;;;2.50;99.90;;;;;;5092503;28;20357;-81
2022/11/13 05:48:39;;;;;;;39.78;12.05;;;2.50;99.90;;;;;;5092561;28;20815;-81
2022/11/13 05:51:13;;;;;;;85.90;12.20;;;2.50;99.90;;;;;;5092928;28;20039;-81
2022/11/13 05:53:39;;;;;;;127.77;13.50;;;2.60;99.90;;;;;;5092627;28;20028;-81
2022/11/13 05:56:26;;;;;;;92.40;13.13;;;2.60;99.90;;;;;;5092029;28;20050;-81
2022/11/13 05:58:53;;;;;;;77.27;15.57;;;2.60;99.90;;;;;;5092162;28;20016;-80
2022/11/13 06:01:27;;;;;;;43.83;12.07;;;2.50;99.90;;;;;;5092195;28;20052;-80
2022/11/13 06:03:55;;;;;;;55.38;12.95;;;2.50;99.90;;;;;;5092556;28;20016;-81
2022/11/13 06:06:22;;;;;;;63.83;13.37;;;2.50;99.90;;;;;;5092292;28;20054;-80
2022/11/13 06:08:49;;;;;;;56.40;12.93;;;2.50;99.90;;;;;;5092810;28;20104;-81
2022/11/13 06:11:20;;;;;;;52.80;12.47;;;2.50;99.90;;;;;;5092685;28;20069;-81
2022/11/13 06:13:46;;;;;;;104.47;13.43;;;2.50;99.90;;;;;;5092833;28;20422;-80
2022/11/13 06:16:15;;;;;;;56.27;13.17;;;2.50;99.90;;;;;;5093033;28;20025;-81
2022/11/13 06:18:42;;;;;;;80.63;14.40;;;2.50;99.90;;;;;;5091990;28;20034;-81
2022/11/13 06:21:14;;;;;;;92.17;13.50;;;2.50;99.90;;;;;;5091969;28;20023;-80
2022/11/13 06:23:39;;;;;;;34.43;12.90;;;2.50;99.90;;;;;;5091682;28;20055;-80
2022/11/13 06:26:07;;;;;;;58.77;14.00;;;2.40;99.90;;;;;;5091855;28;20055;-81
2022/11/13 06:28:33;;;;;;;71.93;13.90;;;2.40;99.90;;;;;;5091421;28;20028;-81
2022/11/13 06:31:10;;;;;;;40.90;12.87;;;2.40;99.90;;;;;;5091916;28;20036;-81
2022/11/13 06:33:37;;;;;;;69.57;13.93;;;2.40;99.90;;;;;;5091974;28;20036;-81
2022/11/13 06:36:04;;;;;;;69.13;14.37;;;2.40;99.90;;;;;;5091488;28;20135;-81
2022/11/13 06:38:36;;;;;;;64.23;13.57;;;2.40;99.90;;;;;;5091530;28;20034;-81
2022/11/13 06:41:02;;;;;;;84.37;13.47;;;2.30;99.90;;;;;;5092080;28;20028;-81
2022/11/13 06:43:29;;;;;;;78.73;13.93;;;2.30;99.90;;;;;;5091568;28;20046;-80
2022/11/13 06:45:56;;;;;;;144.00;15.90;;;2.30;99.90;;;;;;5091509;28;20035;-80
2022/11/13 06:48:22;;;;;;;84.07;14.23;;;2.30;99.90;;;;;;5090943;28;20052;-80
2022/11/13 06:50:48;;;;;;;55.37;13.57;;;2.30;99.90;;;;;;5091384;28;20023;-80
2022/11/13 06:53:14;;;;;;;42.50;12.97;;;2.30;99.90;;;;;;5091119;28;20059;-80
2022/11/13 06:55:48;;;;;;;93.40;14.27;;;2.30;99.90;;;;;;5091160;28;20032;-80
2022/11/13 06:58:14;;;;;;;36.87;12.80;;;2.20;99.90;;;;;;5091399;28;20051;-79
2022/11/13 07:00:40;;;;;;;34.23;12.97;;;2.20;99.90;;;;;;5091761;28;20023;-80
2022/11/13 07:03:13;;;;;;;44.30;13.20;;;2.20;99.90;;;;;;5091006;28;20032;-79
2022/11/13 07:05:39;;;;;;;42.93;14.17;;;2.20;99.90;;;;;;5091086;28;20032;-79
2022/11/13 07:08:04;;;;;;;86.03;15.17;;;2.20;99.90;;;;;;5090256;28;20081;-79
2022/11/13 07:10:30;;;;;;;66.27;16.23;;;2.20;99.90;;;;;;5090829;28;20024;-79
2022/11/13 07:12:58;;;;;;;69.63;15.30;;;2.20;99.90;;;;;;5090578;28;20032;-79
2022/11/13 07:15:24;;;;;;;87.30;15.63;;;2.30;99.90;;;;;;5088277;28;20027;-79
2022/11/13 07:17:50;;;;;;;56.77;15.20;;;2.30;99.90;;;;;;5089101;28;20040;-79
2022/11/13 07:20:15;;;;;;;76.80;15.83;;;2.30;99.90;;;;;;5090593;28;20119;-79
2022/11/13 07:22:41;;;;;;;66.93;15.70;;;2.30;99.90;;;;;;5091126;28;20028;-79
2022/11/13 07:25:07;;;;;;;91.13;16.57;;;2.30;99.90;;;;;;5091043;28;20032;-79
2022/11/13 07:27:32;;;;;;;77.73;16.43;;;2.40;99.90;;;;;;5090396;28;20051;-80
2022/11/13 07:29:58;;;;;;;61.33;15.80;;;2.40;99.90;;;;;;5090515;28;20032;-79
2022/11/13 07:32:23;;;;;;;45.20;16.33;;;2.40;99.90;;;;;;5090290;28;20032;-79
2022/11/13 07:34:49;;;;;;;48.63;14.90;;;2.30;99.90;;;;;;5090787;28;20103;-79
2022/11/13 07:37:14;;;;;;;48.50;15.00;;;2.30;99.90;;;;;;5090456;28;20032;-79
2022/11/13 07:39:40;;;;;;;59.70;16.40;;;2.30;99.90;;;;;;5091180;28;20028;-82
2022/11/13 07:42:06;;;;;;;72.50;16.17;;;2.30;99.90;;;;;;5091410;28;20380;-79
2022/11/13 07:44:31;;;;;;;53.90;18.13;;;2.30;99.90;;;;;;5091106;28;20031;-79
2022/11/13 07:46:57;;;;;;;122.30;16.67;;;2.30;99.90;;;;;;5088781;28;20036;-79
2022/11/13 07:49:22;;;;;;;106.40;16.80;;;2.40;99.90;;;;;;5090538;28;20035;-79
2022/11/13 07:51:48;;;;;;;79.83;16.83;;;2.50;99.90;;;;;;5090913;28;20418;-80
2022/11/13 07:54:13;;;;;;;101.93;16.87;;;2.50;99.90;;;;;;5082897;28;20047;-80
2022/11/13 07:56:39;;;;;;;45.67;16.97;;;2.40;99.90;;;;;;5073625;28;20024;-82
2022/11/13 07:59:05;;;;;;;90.27;22.87;;;2.50;99.90;;;;;;5092536;28;20032;-82
2022/11/13 08:01:30;;;;;;;122.30;25.47;;;2.50;99.90;;;;;;5092037;28;20038;-81
2022/11/13 08:03:56;;;;;;;82.87;17.57;;;2.50;99.90;;;;;;5091751;28;20039;-81
2022/11/13 08:06:22;;;;;;;81.47;19.43;;;2.50;99.90;;;;;;5077615;28;20020;-81
2022/11/13 08:08:48;;;;;;;49.70;16.37;;;2.50;99.90;;;;;;5090657;28;20062;-79
2022/11/13 08:11:14;;;;;;;47.40;15.03;;;2.60;99.90;;;;;;5089847;28;20364;-82
2022/11/13 08:13:40;;;;;;;35.13;15.07;;;2.60;99.90;;;;;;5092201;28;20035;-82
2022/11/13 08:16:06;;;;;;;40.70;15.83;;;2.60;99.90;;;;;;5092418;28;20016;-82
2022/11/13 08:18:32;;;;;;;60.57;16.07;;;2.60;99.90;;;;;;5092472;28;20013;-82
2022/11/13 08:21:00;;;;;;;53.53;17.80;;;2.60;99.90;;;;;;5095518;28;20020;-82
2022/11/13 08:23:26;;;;;;;66.67;20.73;;;2.60;99.90;;;;;;5091170;28;20107;-79
2022/11/13 08:25:51;;;;;;;73.03;16.90;;;2.70;99.90;;;;;;5093457;28;20429;-80
2022/11/13 08:28:17;;;;;;;43.33;15.70;;;2.70;99.90;;;;;;5094045;28;20028;-79
2022/11/13 08:30:43;;;;;;;67.43;16.00;;;2.80;99.90;;;;;;5087244;28;20414;-80
2022/11/13 08:33:09;;;;;;;77.13;17.43;;;2.80;99.90;;;;;;5094197;28;20388;-79
2022/11/13 08:35:35;;;;;;;122.73;41.07;;;2.90;99.90;;;;;;5085639;28;20017;-79
2022/11/13 08:38:02;;;;;;;56.57;20.00;;;2.90;99.90;;;;;;5090818;28;20032;-80
2022/11/13 08:40:28;;;;;;;54.17;21.63;;;2.90;99.90;;;;;;5076597;28;20028;-83
2022/11/13 08:43:00;;;;;;;119.87;30.03;;;2.90;99.90;;;;;;5093363;28;21575;-79
2022/11/13 08:45:28;;;;;;;86.17;21.87;;;3.00;99.90;;;;;;5094231;28;20035;-82
2022/11/13 08:47:53;;;;;;;94.07;21.23;;;3.00;99.90;;;;;;5093276;28;20044;-79
2022/11/13 08:50:19;;;;;;;68.83;22.47;;;3.10;99.90;;;;;;5093849;28;20035;-80
2022/11/13 08:52:45;;;;;;;47.63;21.27;;;3.00;99.90;;;;;;5093507;28;20032;-79
2022/11/13 08:55:11;;;;;;;55.13;28.10;;;3.10;99.90;;;;;;5055791;28;20623;-80
2022/11/13 08:57:39;;;;;;;50.47;22.77;;;3.10;99.90;;;;;;5088792;28;20111;-81
2022/11/13 09:00:05;;;;;;;61.20;20.73;;;3.10;99.90;;;;;;5094258;28;20106;-86
2022/11/13 09:02:31;;;;;;;40.60;20.13;;;3.10;99.90;;;;;;5093766;28;20111;-82
2022/11/13 09:04:56;;;;;;;43.43;21.27;;;3.20;99.90;;;;;;5093857;28;20421;-82
2022/11/13 09:07:22;;;;;;;33.63;19.23;;;3.20;99.90;;;;;;5092168;28;20035;-80
2022/11/13 09:09:47;;;;;;;37.03;21.60;;;3.30;99.90;;;;;;5091141;28;20036;-79
2022/11/13 09:12:14;;;;;;;40.43;20.20;;;3.30;99.90;;;;;;5094664;28;20024;-81
2022/11/13 09:14:39;;;;;;;45.17;25.03;;;3.30;99.90;;;;;;5089273;28;20407;-80
2022/11/13 09:17:05;;;;;;;39.97;23.60;;;3.30;99.90;;;;;;5091838;28;20031;-83
2022/11/13 09:19:30;;;;;;;40.77;22.47;;;3.40;99.90;;;;;;5085768;28;20020;-81
2022/11/13 09:21:56;;;;;;;41.43;24.77;;;3.40;99.90;;;;;;5081217;28;20080;-84
2022/11/13 09:24:22;;;;;;;38.03;23.80;;;3.50;99.90;;;;;;5079821;28;20044;-84
2022/11/13 09:26:47;;;;;;;45.13;23.87;;;3.50;99.90;;;;;;5081240;28;20358;-80
2022/11/13 09:29:13;;;;;;;43.27;24.47;;;3.50;99.90;;;;;;5072602;28;20033;-86
2022/11/13 09:31:39;;;;;;;41.80;26.37;;;3.50;99.90;;;;;;5089010;28;20024;-79
2022/11/13 09:34:06;;;;;;;50.80;27.30;;;3.60;99.90;;;;;;5092657;28;20047;-79
2022/11/13 09:36:31;;;;;;;46.23;26.67;;;3.60;99.90;;;;;;5092142;28;20028;-79
2022/11/13 09:38:57;;;;;;;47.40;28.13;;;3.70;99.90;;;;;;5092601;28;20127;-79
2022/11/13 09:41:28;;;;;;;45.13;27.97;;;3.80;99.90;;;;;;5092432;28;20103;-79
2022/11/13 09:44:09;;;;;;;45.70;28.23;;;3.90;99.90;;;;;;5092480;28;20150;-79
2022/11/13 09:46:53;;;;;;;49.10;27.80;;;4.00;99.90;;;;;;5092251;28;20035;-79
2022/11/13 09:49:42;;;;;;;47.77;27.73;;;4.10;99.90;;;;;;5084013;28;20047;-79
2022/11/13 09:52:16;;;;;;;69.63;41.77;;;4.20;99.90;;;;;;5090071;28;20020;-81
2022/11/13 09:54:42;;;;;;;48.67;28.43;;;4.20;99.90;;;;;;5083160;28;20412;-82
2022/11/13 09:57:19;;;;;;;46.60;28.07;;;4.30;99.90;;;;;;5091766;28;20035;-82
2022/11/13 10:00:02;;;;;;;42.90;26.60;;;4.40;99.90;;;;;;5098953;28;20100;-80
2022/11/13 10:02:49;;;;;;;34.30;23.77;;;4.50;99.90;;;;;;5087929;28;20421;-80
2022/11/13 10:05:30;;;;;;;37.87;26.40;;;4.60;99.90;;;;;;5073755;28;20085;-81
2022/11/13 10:08:14;;;;;;;36.40;25.50;;;4.70;99.90;;;;;;5087683;28;20099;-81
2022/11/13 10:10:59;;;;;;;33.30;22.57;;;4.80;99.90;;;;;;5086916;28;20035;-81
2022/11/13 10:13:31;;;;;;;37.37;23.80;;;4.90;99.90;;;;;;5089965;28;20026;-82
2022/11/13 10:16:20;;;;;;;34.80;22.33;;;5.00;99.90;;;;;;5082853;28;20102;-81
2022/11/13 10:18:48;;;;;;;35.17;21.37;;;5.10;99.90;;;;;;5075349;28;20419;-82
2022/11/13 10:21:33;;;;;;;34.77;23.27;;;5.10;99.90;;;;;;5071630;28;20473;-82
2022/11/13 10:24:03;;;;;;;32.37;22.30;;;5.10;99.90;;;;;;5079296;28;20092;-82
2022/11/13 10:26:30;;;;;;;32.17;21.60;;;5.20;99.90;;;;;;5086336;28;20334;-82
2022/11/13 10:29:16;;;;;;;33.37;22.83;;;5.30;99.90;;;;;;5078452;28;20024;-82
2022/11/13 10:31:47;;;;;;;;;;;5.30;99.90;;;;;;5089677;28;20028;-82
2022/11/13 10:34:14;;;;;;;31.63;21.20;;;5.40;99.90;;;;;;5081115;28;19912;-82
2022/11/13 10:36:54;;;;;;;31.00;21.40;;;5.40;99.90;;;;;;5071030;28;20024;-82
2022/11/13 10:39:20;;;;;;;33.67;22.67;;;5.40;99.90;;;;;;5071161;28;20036;-82
2022/11/13 10:41:51;;;;;;;33.23;21.97;;;5.40;99.90;;;;;;5070897;28;20037;-82
2022/11/13 10:44:33;;;;;;;31.80;21.60;;;5.50;99.90;;;;;;5076256;28;20031;-82
2022/11/13 10:47:19;;;;;;;32.23;20.70;;;5.50;99.90;;;;;;5074615;28;20017;-82
2022/11/13 10:49:44;;;;;;;24.70;18.47;;;5.50;99.90;;;;;;5070951;28;20028;-80
2022/11/13 10:52:24;;;;;;;27.63;19.50;;;5.50;99.90;;;;;;5074052;28;20038;-79
2022/11/13 10:55:04;;;;;;;27.47;18.60;;;5.60;99.90;;;;;;5078824;28;20047;-82
2022/11/13 10:57:34;;;;;;;25.80;18.30;;;5.60;99.90;;;;;;5079081;28;20016;-80
2022/11/13 11:00:00;;;;;;;26.47;17.47;;;5.60;99.90;;;;;;5074915;28;20063;-78
2022/11/13 11:02:27;;;;;;;24.73;18.33;;;5.60;99.90;;;;;;5072606;28;20036;-77
2022/11/13 11:05:17;;;;;;;27.57;19.10;;;5.60;99.90;;;;;;5091698;28;20020;-76
2022/11/13 11:07:43;;;;;;;28.13;19.00;;;5.70;99.90;;;;;;5088428;28;20080;-76
2022/11/13 11:10:21;;;;;;;24.93;18.63;;;5.80;99.90;;;;;;5086260;28;20099;-78
2022/11/13 11:12:52;;;;;;;23.63;17.57;;;5.80;99.90;;;;;;5089835;28;20048;-78
2022/11/13 11:15:24;;;;;;;25.00;18.40;;;5.80;99.90;;;;;;5079265;28;20020;-78
2022/11/13 11:18:03;;;;;;;26.73;19.70;;;5.70;99.90;;;;;;5092420;28;20098;-78
2022/11/13 11:20:40;;;;;;;25.77;18.27;;;5.70;99.90;;;;;;5091847;28;20036;-78
2022/11/13 11:23:36;;;;;;;24.30;17.93;;;5.70;99.90;;;;;;5092309;28;20119;-78
2022/11/13 11:26:10;;;;;;;24.77;17.07;;;5.80;99.90;;;;;;5092737;28;20376;-78
2022/11/13 11:28:51;;;;;;;23.27;17.97;;;5.90;99.90;;;;;;5092600;28;20035;-78
2022/11/13 11:31:25;;;;;;;25.43;17.23;;;5.90;99.90;;;;;;5092702;28;20119;-78
2022/11/13 11:34:17;;;;;;;26.77;18.37;;;6.00;99.90;;;;;;5092844;28;20047;-78
2022/11/13 11:37:26;;;;;;;26.07;17.67;;;6.10;99.90;;;;;;5092976;28;20024;-78
2022/11/13 11:40:31;;;;;;;23.97;16.63;;;6.30;99.90;;;;;;5030527;28;20030;-78
2022/11/13 11:43:41;;;;;;;29.23;19.33;;;6.40;99.90;;;;;;5047740;28;20040;-78
2022/11/13 11:46:12;;;;;;;25.93;18.57;;;6.40;99.90;;;;;;5013721;28;20025;-80
2022/11/13 11:48:38;;;;;;;26.80;19.27;;;6.20;99.90;;;;;;5030050;28;20060;-78
2022/11/13 11:51:21;;;;;;;27.90;18.97;;;6.30;99.90;;;;;;5064387;28;20036;-78
2022/11/13 11:54:05;;;;;;;22.80;17.57;;;6.40;99.90;;;;;;5092571;28;20419;-78
2022/11/13 11:56:41;;;;;;;22.67;17.23;;;6.50;99.90;;;;;;5092607;28;20157;-78
2022/11/13 11:59:32;;;;;;;26.00;18.13;;;6.50;99.90;;;;;;5092835;28;20046;-78
2022/11/13 12:02:22;;;;;;;23.37;17.80;;;6.70;99.90;;;;;;5072573;28;20115;-78
2022/11/13 12:05:22;;;;;;;25.07;17.10;;;6.90;99.90;;;;;;5083441;28;20395;-78
2022/11/13 12:07:57;;;;;;;36.37;24.57;;;7.00;99.90;;;;;;5087643;28;20065;-78
2022/11/13 12:10:53;;;;;;;24.23;17.40;;;7.10;99.90;;;;;;5092957;28;20016;-78
2022/11/13 12:13:48;;;;;;;23.97;20.50;;;7.20;99.90;;;;;;5092881;28;20027;-77
2022/11/13 12:16:28;;;;;;;21.43;16.83;;;7.30;99.90;;;;;;5049732;28;20050;-80
2022/11/13 12:19:32;;;;;;;22.10;15.90;;;7.40;99.90;;;;;;5092725;28;20028;-78
2022/11/13 12:22:13;;;;;;;21.60;16.03;;;7.60;99.90;;;;;;5091959;28;20074;-78
2022/11/13 12:25:11;;;;;;;27.43;20.87;;;7.70;99.90;;;;;;5092766;28;20023;-78
2022/11/13 12:27:59;;;;;;;20.50;15.83;;;7.70;99.90;;;;;;5092701;28;20485;-79
2022/11/13 12:31:03;;;;;;;21.70;15.77;;;7.80;99.90;;;;;;5091542;28;20081;-78
2022/11/13 12:33:31;;;;;;;19.23;14.60;;;7.90;99.90;;;;;;5091780;28;20117;-78
2022/11/13 12:35:57;;;;;;;16.57;13.03;;;8.00;99.90;;;;;;5091048;28;20026;-77
2022/11/13 12:38:44;;;;;;;17.30;13.40;;;8.10;99.90;;;;;;5091475;28;20027;-78
2022/11/13 12:41:28;;;;;;;17.97;13.93;;;8.20;99.90;;;;;;5091832;28;20048;-78
2022/11/13 12:44:21;;;;;;;17.07;12.70;;;8.30;99.90;;;;;;5091963;28;20499;-78
2022/11/13 12:46:48;;;;;;;19.63;15.27;;;8.40;99.90;;;;;;5071624;28;20044;-78
2022/11/13 12:49:32;;;;;;;17.30;12.50;;;8.40;99.90;;;;;;5067991;28;20156;-78
2022/11/13 12:52:03;;;;;;;16.90;13.30;;;8.50;99.90;;;;;;5092675;28;20028;-78